createdAt,value
2023-04-16T00:01:42.236Z,74.82
2023-04-16T00:03:44.122Z,74.09
2023-04-16T00:05:47.468Z,74.40
2023-04-16T00:07:49.078Z,74.54
2023-04-16T00:09:51.068Z,74.26
2023-04-16T00:11:55.118Z,74.44
2023-04-16T00:13:57.029Z,74.01
2023-04-16T00:15:58.920Z,74.28
2023-04-16T00:18:00.825Z,74.36
2023-04-16T00:20:02.830Z,74.57
2023-04-16T00:22:05.978Z,74.70
2023-04-16T00:24:07.956Z,74.22
2023-04-16T00:26:09.780Z,73.94
2023-04-16T00:28:13.776Z,74.36
2023-04-16T00:30:18.269Z,74.91
2023-04-16T00:32:20.107Z,74.92
2023-04-16T00:34:22.100Z,75.16
2023-04-16T00:36:24.641Z,74.49
2023-04-16T00:38:29.313Z,74.78
2023-04-16T00:40:33.441Z,74.85
2023-04-16T00:42:35.216Z,74.60
2023-04-16T00:44:39.024Z,75.11
2023-04-16T00:46:41.336Z,74.73
2023-04-16T00:48:45.393Z,74.66
2023-04-16T00:50:47.648Z,74.76
2023-04-16T00:52:49.986Z,74.80
2023-04-16T00:54:54.295Z,75.13
2023-04-16T00:56:56.053Z,74.99
2023-04-16T00:58:58.979Z,74.69
2023-04-16T01:01:03.229Z,74.65
2023-04-16T01:03:07.256Z,74.67
2023-04-16T01:05:09.569Z,75.09
2023-04-16T01:07:11.130Z,74.86
2023-04-16T01:09:13.220Z,75.29
2023-04-16T01:11:16.168Z,74.37
2023-04-16T01:13:17.891Z,74.79
2023-04-16T01:15:19.817Z,74.89
2023-04-16T01:17:21.351Z,75.14
2023-04-16T01:19:22.941Z,75.14
2023-04-16T01:21:25.890Z,74.94
2023-04-16T01:23:27.551Z,75.49
2023-04-16T01:25:29.170Z,75.15
2023-04-16T01:27:30.997Z,74.83
2023-04-16T01:29:32.560Z,75.22
2023-04-16T01:31:34.419Z,75.36
2023-04-16T01:33:36.173Z,74.98
2023-04-16T01:35:37.809Z,74.96
2023-04-16T01:37:40.729Z,75.24
2023-04-16T01:39:42.407Z,75.12
2023-04-16T01:41:44.259Z,74.62
2023-04-16T01:43:46.016Z,74.82
2023-04-16T01:45:47.757Z,75.15
2023-04-16T01:47:50.079Z,75.09
2023-04-16T01:49:51.796Z,75.36
2023-04-16T01:51:53.532Z,75.04
2023-04-16T01:53:59.259Z,75.36
2023-04-16T01:56:00.916Z,75.27
2023-04-16T01:58:02.568Z,75.50
2023-04-16T02:00:05.294Z,75.23
2023-04-16T02:02:09.522Z,75.39
2023-04-16T02:04:12.615Z,75.32
2023-04-16T02:06:14.297Z,76.05
2023-04-16T02:08:16.303Z,75.24
2023-04-16T02:10:19.264Z,75.23
2023-04-16T02:12:20.993Z,75.38
2023-04-16T02:14:22.742Z,75.64
2023-04-16T02:16:24.321Z,75.32
2023-04-16T02:18:26.077Z,75.71
2023-04-16T02:20:27.628Z,75.61
2023-04-16T02:22:29.452Z,75.79
2023-04-16T02:24:30.953Z,75.87
2023-04-16T02:26:34.192Z,75.82
2023-04-16T02:28:35.898Z,75.80
2023-04-16T02:30:43.802Z,76.00
2023-04-16T02:32:45.468Z,76.00
2023-04-16T02:34:47.358Z,75.92
2023-04-16T02:36:49.257Z,75.60
2023-04-16T02:38:51.251Z,75.78
2023-04-16T02:40:52.947Z,75.43
2023-04-16T02:42:58.802Z,75.10
2023-04-16T02:45:02.165Z,75.39
2023-04-16T02:47:03.937Z,74.90
2023-04-16T02:49:05.867Z,74.76
2023-04-16T02:51:07.926Z,75.56
2023-04-16T02:53:09.588Z,75.50
2023-04-16T02:55:11.873Z,75.24
2023-04-16T02:57:13.473Z,75.51
2023-04-16T02:59:16.388Z,74.93
2023-04-16T03:01:18.209Z,75.51
2023-04-16T03:03:20.865Z,74.84
2023-04-16T03:05:22.595Z,75.62
2023-04-16T03:07:24.332Z,75.33
2023-04-16T03:09:25.958Z,75.29
2023-04-16T03:11:27.522Z,75.05
2023-04-16T03:13:29.186Z,75.83
2023-04-16T03:15:32.460Z,74.83
2023-04-16T03:17:34.271Z,75.10
2023-04-16T03:19:35.968Z,75.39
2023-04-16T03:21:37.548Z,75.15
2023-04-16T03:23:39.162Z,74.97
2023-04-16T03:25:40.937Z,75.10
2023-04-16T03:27:42.963Z,74.84
2023-04-16T03:29:44.969Z,75.17
2023-04-16T03:31:48.270Z,75.39
2023-04-16T03:33:50.153Z,75.37
2023-04-16T03:35:58.608Z,74.65
2023-04-16T03:38:00.396Z,75.41
2023-04-16T03:40:02.327Z,75.22
2023-04-16T03:42:04.285Z,75.27
2023-04-16T03:44:05.934Z,75.56
2023-04-16T03:46:09.175Z,75.48
2023-04-16T03:48:13.797Z,75.63
2023-04-16T03:50:19.185Z,75.48
2023-04-16T03:52:21.504Z,75.41
2023-04-16T03:54:23.315Z,75.84
2023-04-16T03:56:27.101Z,75.19
2023-04-16T03:58:29.053Z,75.45
2023-04-16T04:00:31.872Z,75.44
2023-04-16T04:02:36.150Z,75.61
2023-04-16T04:04:39.328Z,75.72
2023-04-16T04:06:41.288Z,75.79
2023-04-16T04:08:42.883Z,75.76
2023-04-16T04:10:48.754Z,75.25
2023-04-16T04:12:50.397Z,75.86
2023-04-16T04:14:51.999Z,75.58
2023-04-16T04:16:53.671Z,75.82
2023-04-16T04:18:55.447Z,75.90
2023-04-16T04:20:58.441Z,75.90
2023-04-16T04:23:00.029Z,75.31
2023-04-16T04:25:01.658Z,75.44
2023-04-16T04:27:03.281Z,75.70
2023-04-16T04:29:05.222Z,75.92
2023-04-16T04:31:06.736Z,75.51
2023-04-16T04:33:08.507Z,76.11
2023-04-16T04:35:10.162Z,75.90
2023-04-16T04:37:13.119Z,75.58
2023-04-16T04:39:14.661Z,76.09
2023-04-16T04:41:16.139Z,75.45
2023-04-16T04:43:17.882Z,75.80
2023-04-16T04:45:19.414Z,75.77
2023-04-16T04:47:21.052Z,75.86
2023-04-16T04:49:22.786Z,76.01
2023-04-16T04:51:24.465Z,75.40
2023-04-16T04:53:27.398Z,75.52
2023-04-16T04:55:28.998Z,75.77
2023-04-16T04:57:30.551Z,75.69
2023-04-16T04:59:32.098Z,75.62
2023-04-16T05:01:33.847Z,75.61
2023-04-16T05:03:35.597Z,75.76
2023-04-16T05:05:37.383Z,75.95
2023-04-16T05:07:39.150Z,75.49
2023-04-16T05:09:42.019Z,75.53
2023-04-16T05:11:43.678Z,75.21
2023-04-16T05:13:45.325Z,76.03
2023-04-16T05:15:47.062Z,75.77
2023-04-16T05:17:48.876Z,75.93
2023-04-16T05:19:52.312Z,75.05
2023-04-16T05:21:54.375Z,76.01
2023-04-16T05:23:55.911Z,75.63
2023-04-16T05:25:58.735Z,75.61
2023-04-16T05:28:00.367Z,75.73
2023-04-16T05:30:02.312Z,75.55
2023-04-16T05:32:04.042Z,76.06
2023-04-16T05:34:05.597Z,75.76
2023-04-16T05:36:08.553Z,75.52
2023-04-16T05:38:10.161Z,75.64
2023-04-16T05:40:13.920Z,75.87
2023-04-16T05:42:17.017Z,75.50
2023-04-16T05:44:18.643Z,75.66
2023-04-16T05:46:20.269Z,75.80
2023-04-16T05:48:21.875Z,75.82
2023-04-16T05:50:23.441Z,75.79
2023-04-16T05:52:25.040Z,75.86
2023-04-16T05:54:26.526Z,75.41
2023-04-16T05:56:28.192Z,75.16
2023-04-16T05:58:33.206Z,75.53
2023-04-16T06:00:35.288Z,75.57
2023-04-16T06:02:37.071Z,75.74
2023-04-16T06:04:38.784Z,75.97
2023-04-16T06:06:41.665Z,75.48
2023-04-16T06:08:43.546Z,75.51
2023-04-16T06:10:47.309Z,75.77
2023-04-16T06:12:48.949Z,75.45
2023-04-16T06:14:57.942Z,75.24
2023-04-16T06:17:01.400Z,75.36
2023-04-16T06:19:02.973Z,75.08
2023-04-16T06:21:04.793Z,75.66
2023-04-16T06:23:06.452Z,75.76
2023-04-16T06:25:11.596Z,75.61
2023-04-16T06:27:15.121Z,75.49
2023-04-16T06:29:16.836Z,75.83
2023-04-16T06:31:22.501Z,75.33
2023-04-16T06:33:24.322Z,75.57
2023-04-16T06:35:26.312Z,75.43
2023-04-16T06:37:31.135Z,75.85
2023-04-16T06:39:32.895Z,75.85
2023-04-16T06:41:37.466Z,75.46
2023-04-16T06:43:39.569Z,75.71
2023-04-16T06:45:43.242Z,75.82
2023-04-16T06:47:46.465Z,75.69
2023-04-16T06:49:54.031Z,75.38
2023-04-16T06:51:55.781Z,75.51
2023-04-16T06:53:57.545Z,75.19
2023-04-16T06:55:59.217Z,75.14
2023-04-16T06:58:01.032Z,75.05
2023-04-16T07:00:06.265Z,75.38
2023-04-16T07:02:09.965Z,75.23
2023-04-16T07:04:13.622Z,74.91
2023-04-16T07:06:15.330Z,74.94
2023-04-16T07:08:17.158Z,75.07
2023-04-16T07:10:21.782Z,74.65
2023-04-16T07:12:23.588Z,74.84
2023-04-16T07:14:27.417Z,74.88
2023-04-16T07:16:28.973Z,74.48
2023-04-16T07:18:30.569Z,74.58
2023-04-16T07:20:33.512Z,73.81
2023-04-16T07:25:44.773Z,73.87
2023-04-16T07:27:52.217Z,73.76
2023-04-16T07:30:27.314Z,73.55
2023-04-16T07:32:52.538Z,73.69
2023-04-16T07:35:43.964Z,73.88
2023-04-16T07:37:24.547Z,73.20
2023-04-16T07:39:32.485Z,73.35
2023-04-16T07:41:34.303Z,73.23
2023-04-16T07:43:36.562Z,73.60
2023-04-16T07:45:38.224Z,73.50
2023-04-16T07:47:42.452Z,73.51
2023-04-16T07:49:45.801Z,73.32
2023-04-16T07:51:47.548Z,73.52
2023-04-16T07:53:51.657Z,73.07
2023-04-16T07:55:55.370Z,72.69
2023-04-16T07:57:56.901Z,72.51
2023-04-16T07:59:58.443Z,72.33
2023-04-16T08:02:00.136Z,72.30
2023-04-16T08:04:02.131Z,72.10
2023-04-16T08:06:06.816Z,71.97
2023-04-16T08:08:08.445Z,71.89
2023-04-16T08:10:12.853Z,71.86
2023-04-16T08:14:33.668Z,71.70
2023-04-16T08:16:35.759Z,70.74
2023-04-16T08:18:39.496Z,71.10
2023-04-16T08:20:41.710Z,71.38
2023-04-16T08:22:46.699Z,70.62
2023-04-16T08:24:59.075Z,71.06
2023-04-16T08:27:18.666Z,71.33
2023-04-16T08:29:21.548Z,70.25
2023-04-16T08:31:27.292Z,70.17
2023-04-16T08:33:29.410Z,69.83
2023-04-16T08:35:34.643Z,70.29
2023-04-16T08:37:41.211Z,69.94
2023-04-16T08:39:50.642Z,69.42
2023-04-16T08:41:55.352Z,69.44
2023-04-16T08:44:21.022Z,70.20
2023-04-16T08:46:26.365Z,68.79
2023-04-16T08:48:38.544Z,69.03
2023-04-16T08:50:53.273Z,68.93
2023-04-16T08:52:59.754Z,67.90
2023-04-16T08:55:11.722Z,67.87
2023-04-16T08:57:19.258Z,67.27
2023-04-16T08:59:25.672Z,66.76
2023-04-16T09:01:39.721Z,66.72
2023-04-16T09:03:46.819Z,67.26
2023-04-16T09:05:50.390Z,66.69
2023-04-16T09:07:57.831Z,65.84
2023-04-16T09:10:04.191Z,65.93
2023-04-16T09:12:10.278Z,65.67
2023-04-16T09:14:15.538Z,65.49
2023-04-16T09:16:20.828Z,66.51
2023-04-16T09:18:23.144Z,65.28
2023-04-16T09:20:26.842Z,64.18
2023-04-16T09:22:31.584Z,65.17
2023-04-16T09:24:40.003Z,64.52
2023-04-16T09:26:44.417Z,64.95
2023-04-16T09:28:48.595Z,64.50
2023-04-16T09:31:11.688Z,65.35
2023-04-16T09:33:19.342Z,63.88
2023-04-16T09:35:22.635Z,64.24
2023-04-16T09:37:27.939Z,64.22
2023-04-16T09:39:31.278Z,63.33
2023-04-16T09:41:36.589Z,63.43
2023-04-16T09:43:39.276Z,63.15
2023-04-16T09:45:48.955Z,64.16
2023-04-16T09:47:50.787Z,62.00
2023-04-16T09:49:59.395Z,63.17
2023-04-16T09:52:01.054Z,62.06
2023-04-16T09:54:04.757Z,61.28
2023-04-16T09:56:07.111Z,61.40
2023-04-16T09:58:08.697Z,61.54
2023-04-16T10:00:11.666Z,60.88
2023-04-16T10:02:14.958Z,61.14
2023-04-16T10:04:17.963Z,61.23
2023-04-16T10:06:23.255Z,60.91
2023-04-16T10:08:24.769Z,60.19
2023-04-16T10:10:26.383Z,60.35
2023-04-16T10:12:28.892Z,59.62
2023-04-16T10:14:30.675Z,58.51
2023-04-16T10:16:33.052Z,58.99
2023-04-16T10:18:36.708Z,58.80
2023-04-16T10:20:38.883Z,58.10
2023-04-16T10:22:42.239Z,58.50
2023-04-16T10:24:45.148Z,58.19
2023-04-16T10:26:51.174Z,58.43
2023-04-16T10:28:56.255Z,57.09
2023-04-16T10:30:59.877Z,57.15
2023-04-16T10:33:03.980Z,57.14
2023-04-16T10:35:06.702Z,56.85
2023-04-16T10:37:08.270Z,57.08
2023-04-16T10:39:42.693Z,58.44
2023-04-16T10:41:50.050Z,57.26
2023-04-16T10:44:20.060Z,57.01
2023-04-16T10:46:23.738Z,55.53
2023-04-16T10:48:27.416Z,55.01
2023-04-16T10:50:35.761Z,56.66
2023-04-16T10:52:38.771Z,55.93
2023-04-16T10:54:44.343Z,56.76
2023-04-16T10:56:47.040Z,55.69
2023-04-16T10:58:48.982Z,55.21
2023-04-16T11:00:51.018Z,55.75
2023-04-16T11:02:55.084Z,54.75
2023-04-16T11:04:57.500Z,54.36
2023-04-16T11:07:04.358Z,55.28
2023-04-16T11:09:05.839Z,54.80
2023-04-16T11:11:09.907Z,54.67
2023-04-16T11:13:13.007Z,53.54
2023-04-16T11:15:15.924Z,53.87
2023-04-16T11:17:18.421Z,54.23
2023-04-16T11:19:19.948Z,52.98
2023-04-16T11:21:22.379Z,53.60
2023-04-16T11:23:23.951Z,53.26
2023-04-16T11:25:26.996Z,53.97
2023-04-16T11:27:31.583Z,54.32
2023-04-16T11:29:33.261Z,52.69
2023-04-16T11:31:35.013Z,53.57
2023-04-16T11:33:37.700Z,52.95
2023-04-16T11:35:39.831Z,52.95
2023-04-16T11:37:42.443Z,52.09
2023-04-16T11:39:51.938Z,53.67
2023-04-16T11:41:53.772Z,51.45
2023-04-16T11:43:56.658Z,51.91
2023-04-16T11:45:59.763Z,52.24
2023-04-16T11:48:01.406Z,51.91
2023-04-16T11:50:18.312Z,53.70
2023-04-16T11:52:27.593Z,53.03
2023-04-16T11:54:29.166Z,51.53
2023-04-16T11:56:33.100Z,51.75
2023-04-16T11:58:34.793Z,52.71
2023-04-16T12:00:39.430Z,51.62
2023-04-16T12:02:44.739Z,51.88
2023-04-16T12:04:46.610Z,51.95
2023-04-16T12:07:08.022Z,53.69
2023-04-16T12:09:26.256Z,53.91
2023-04-16T12:11:40.932Z,53.50
2023-04-16T12:13:42.765Z,51.42
2023-04-16T12:15:47.775Z,52.38
2023-04-16T12:17:53.767Z,52.40
2023-04-16T12:19:57.012Z,52.39
2023-04-16T12:22:00.956Z,53.40
2023-04-16T12:24:02.807Z,51.92
2023-04-16T12:26:08.088Z,53.18
2023-04-16T12:28:09.807Z,52.24
2023-04-16T12:30:12.103Z,52.05
2023-04-16T12:32:22.789Z,53.30
2023-04-16T12:34:27.748Z,52.22
2023-04-16T12:37:02.783Z,52.99
2023-04-16T12:39:04.796Z,51.04
2023-04-16T12:41:08.757Z,51.42
2023-04-16T12:43:10.830Z,51.66
2023-04-16T12:45:12.807Z,51.38
2023-04-16T12:47:16.302Z,51.73
2023-04-16T12:49:19.258Z,51.79
2023-04-16T12:51:20.894Z,51.43
2023-04-16T12:53:23.096Z,51.37
2023-04-16T12:55:24.910Z,51.62
2023-04-16T12:57:26.467Z,51.14
2023-04-16T12:59:28.221Z,50.95
2023-04-16T13:01:29.865Z,51.18
2023-04-16T13:03:31.617Z,51.36
2023-04-16T13:05:34.943Z,50.79
2023-04-16T13:07:36.504Z,50.57
2023-04-16T13:09:39.775Z,50.71
2023-04-16T13:11:41.720Z,50.58
2023-04-16T13:13:43.565Z,50.78
2023-04-16T13:15:45.718Z,50.70
2023-04-16T13:17:47.387Z,50.61
2023-04-16T13:19:49.446Z,50.34
2023-04-16T13:21:53.047Z,51.00
2023-04-16T13:23:56.820Z,51.02
2023-04-16T13:26:00.262Z,50.98
2023-04-16T13:28:04.443Z,50.28
2023-04-16T13:30:07.430Z,50.85
2023-04-16T13:32:09.537Z,50.94
2023-04-16T13:34:11.120Z,50.91
2023-04-16T13:36:13.265Z,50.78
2023-04-16T13:38:16.560Z,51.39
2023-04-16T13:40:18.257Z,50.62
2023-04-16T13:42:19.787Z,51.21
2023-04-16T13:44:21.389Z,50.90
2023-04-16T13:46:23.203Z,50.42
2023-04-16T13:48:24.969Z,50.46
2023-04-16T13:50:26.566Z,50.00
2023-04-16T13:52:28.247Z,50.76
2023-04-16T13:54:33.319Z,50.79
2023-04-16T13:56:36.687Z,51.44
2023-04-16T13:58:38.467Z,51.15
2023-04-16T14:00:40.202Z,51.21
2023-04-16T14:02:44.626Z,50.90
2023-04-16T14:04:46.846Z,51.85
2023-04-16T14:06:50.985Z,51.46
2023-04-16T14:08:52.753Z,51.89
2023-04-16T14:10:56.734Z,51.78
2023-04-16T14:12:58.468Z,52.27
2023-04-16T14:15:00.302Z,51.99
2023-04-16T14:17:02.098Z,52.28
2023-04-16T14:19:03.737Z,52.52
2023-04-16T14:21:05.290Z,52.33
2023-04-16T14:23:07.154Z,52.93
2023-04-16T14:25:09.248Z,52.92
2023-04-16T14:27:12.390Z,52.66
2023-04-16T14:29:13.948Z,53.19
2023-04-16T14:31:15.541Z,53.36
2023-04-16T14:33:17.074Z,53.33
2023-04-16T14:35:19.020Z,53.42
2023-04-16T14:37:20.577Z,53.64
2023-04-16T14:39:22.215Z,53.69
2023-04-16T14:41:23.867Z,53.75
2023-04-16T14:43:26.848Z,54.28
2023-04-16T14:45:29.104Z,54.85
2023-04-16T14:47:30.778Z,54.32
2023-04-16T14:49:32.393Z,54.37
2023-04-16T14:51:34.001Z,54.37
2023-04-16T14:53:38.087Z,54.26
2023-04-16T14:55:39.940Z,54.57
2023-04-16T14:57:41.686Z,54.91
2023-04-16T14:59:47.009Z,54.74
2023-04-16T15:01:51.050Z,55.18
2023-04-16T15:03:53.053Z,54.90
2023-04-16T15:05:54.885Z,54.72
2023-04-16T15:07:57.032Z,55.09
2023-04-16T15:09:59.053Z,54.97
2023-04-16T15:12:00.943Z,55.24
2023-04-16T15:14:02.525Z,55.10
2023-04-16T15:16:05.590Z,54.90
2023-04-16T15:18:07.340Z,55.17
2023-04-16T15:20:10.178Z,55.70
2023-04-16T15:22:11.740Z,55.60
2023-04-16T15:24:13.481Z,55.69
2023-04-16T15:26:15.152Z,56.35
2023-04-16T15:28:16.687Z,56.14
2023-04-16T15:30:18.817Z,56.60
2023-04-16T15:32:24.241Z,56.53
2023-04-16T15:34:27.546Z,56.80
2023-04-16T15:36:29.430Z,56.32
2023-04-16T15:38:31.155Z,56.92
2023-04-16T15:40:32.725Z,57.07
2023-04-16T15:42:36.907Z,57.28
2023-04-16T15:44:39.645Z,56.77
2023-04-16T15:46:41.333Z,57.33
2023-04-16T15:48:44.465Z,57.13
2023-04-16T15:50:46.319Z,57.66
2023-04-16T15:52:48.063Z,57.38
2023-04-16T15:54:49.776Z,57.16
2023-04-16T15:56:51.501Z,57.30
2023-04-16T15:58:53.159Z,57.83
2023-04-16T16:00:54.998Z,58.05
2023-04-16T16:02:56.722Z,58.33
2023-04-16T16:05:02.305Z,58.52
2023-04-16T16:07:04.026Z,58.43
2023-04-16T16:09:07.018Z,58.56
2023-04-16T16:11:08.852Z,58.67
2023-04-16T16:13:11.586Z,58.73
2023-04-16T16:15:16.837Z,58.48
2023-04-16T16:17:28.720Z,58.43
2023-04-16T16:19:32.390Z,57.86
2023-04-16T16:21:35.568Z,58.88
2023-04-16T16:23:39.182Z,58.99
2023-04-16T16:25:41.125Z,58.76
2023-04-16T16:27:42.694Z,58.70
2023-04-16T16:29:44.331Z,58.71
2023-04-16T16:31:46.028Z,59.03
2023-04-16T16:33:52.174Z,59.51
2023-04-16T16:35:56.232Z,59.37
2023-04-16T16:38:01.776Z,59.64
2023-04-16T16:40:03.834Z,59.95
2023-04-16T16:42:06.023Z,59.85
2023-04-16T16:44:08.071Z,60.08
2023-04-16T16:46:15.988Z,60.56
2023-04-16T16:48:17.609Z,60.55
2023-04-16T16:50:19.539Z,61.49
2023-04-16T16:52:22.969Z,61.43
2023-04-16T16:54:25.969Z,61.90
2023-04-16T16:56:27.557Z,61.44
2023-04-16T16:58:29.201Z,61.51
2023-04-16T17:00:30.760Z,61.13
2023-04-16T17:02:32.503Z,60.39
2023-04-16T17:04:34.258Z,60.90
2023-04-16T17:06:36.100Z,61.15
2023-04-16T17:08:37.711Z,60.86
2023-04-16T17:10:40.680Z,61.10
2023-04-16T17:12:42.270Z,61.11
2023-04-16T17:14:43.824Z,61.55
2023-04-16T17:16:45.416Z,61.51
2023-04-16T17:18:47.290Z,61.44
2023-04-16T17:20:51.345Z,61.84
2023-04-16T17:22:52.926Z,61.59
2023-04-16T17:24:58.033Z,61.94
2023-04-16T17:27:00.982Z,61.60
2023-04-16T17:29:02.517Z,61.69
2023-04-16T17:31:06.502Z,61.75
2023-04-16T17:33:08.244Z,61.98
2023-04-16T17:35:12.085Z,62.05
2023-04-16T17:37:13.759Z,61.94
2023-04-16T17:39:16.638Z,62.30
2023-04-16T17:41:19.505Z,62.48
2023-04-16T17:43:24.757Z,62.72
2023-04-16T17:45:26.669Z,63.18
2023-04-16T17:47:28.310Z,62.92
2023-04-16T17:49:31.538Z,63.74
2023-04-16T17:51:33.653Z,63.01
2023-04-16T17:53:35.364Z,63.80
2023-04-16T17:55:43.127Z,63.75
2023-04-16T17:57:47.240Z,63.80
2023-04-16T17:59:50.470Z,64.09
2023-04-16T18:01:52.142Z,64.07
2023-04-16T18:03:54.028Z,64.42
2023-04-16T18:05:55.855Z,64.41
2023-04-16T18:07:57.657Z,64.20
2023-04-16T18:09:59.213Z,64.65
2023-04-16T18:12:00.836Z,64.75
2023-04-16T18:14:02.436Z,64.74
2023-04-16T18:16:05.507Z,64.63
2023-04-16T18:18:07.655Z,64.84
2023-04-16T18:20:10.238Z,65.02
2023-04-16T18:22:11.853Z,64.66
2023-04-16T18:24:13.787Z,65.34
2023-04-16T18:26:18.653Z,64.99
2023-04-16T18:28:22.649Z,64.87
2023-04-16T18:30:26.710Z,65.09
2023-04-16T18:32:31.226Z,65.60
2023-04-16T18:34:33.178Z,65.36
2023-04-16T18:36:35.336Z,65.04
2023-04-16T18:38:43.612Z,65.16
2023-04-16T18:40:51.190Z,64.96
2023-04-16T18:42:52.835Z,65.70
2023-04-16T18:44:54.695Z,65.16
2023-04-16T18:46:56.674Z,65.35
2023-04-16T18:48:59.594Z,65.59
2023-04-16T18:51:01.209Z,65.81
2023-04-16T18:53:02.768Z,65.86
2023-04-16T18:55:05.076Z,66.33
2023-04-16T18:57:06.676Z,65.86
2023-04-16T18:59:08.351Z,66.20
2023-04-16T19:01:10.424Z,66.13
2023-04-16T19:03:12.106Z,66.52
2023-04-16T19:05:15.112Z,65.82
2023-04-16T19:07:16.774Z,66.01
2023-04-16T19:09:18.518Z,65.80
2023-04-16T19:11:32.299Z,65.65
2023-04-16T19:13:34.005Z,66.12
2023-04-16T19:15:37.533Z,66.59
2023-04-16T19:17:39.274Z,66.32
2023-04-16T19:19:40.913Z,66.62
2023-04-16T19:21:47.012Z,66.42
2023-04-16T19:23:48.737Z,66.42
2023-04-16T19:25:52.866Z,66.37
2023-04-16T19:27:54.736Z,66.98
2023-04-16T19:29:56.325Z,66.71
2023-04-16T19:31:59.091Z,66.73
2023-04-16T19:34:00.966Z,67.05
2023-04-16T19:36:03.058Z,66.79
2023-04-16T19:38:07.048Z,67.03
2023-04-16T19:40:10.561Z,67.08
2023-04-16T19:42:12.083Z,66.76
2023-04-16T19:44:13.682Z,67.06
2023-04-16T19:46:15.500Z,66.85
2023-04-16T19:48:17.443Z,67.45
2023-04-16T19:50:21.958Z,66.90
2023-04-16T19:52:23.623Z,67.26
2023-04-16T19:54:26.794Z,67.27
2023-04-16T19:56:28.338Z,67.09
2023-04-16T19:58:30.192Z,66.93
2023-04-16T20:00:32.369Z,66.94
2023-04-16T20:02:34.317Z,67.48
2023-04-16T20:04:36.276Z,67.18
2023-04-16T20:06:37.922Z,67.26
2023-04-16T20:08:39.578Z,67.67
2023-04-16T20:10:42.667Z,67.77
2023-04-16T20:12:44.146Z,67.71
2023-04-16T20:14:45.814Z,68.02
2023-04-16T20:16:52.309Z,68.07
2023-04-16T20:18:54.339Z,68.35
2023-04-16T20:20:55.959Z,68.29
2023-04-16T20:22:57.581Z,68.03
2023-04-16T20:24:59.243Z,68.02
2023-04-16T20:27:02.212Z,68.48
2023-04-16T20:29:04.354Z,67.71
2023-04-16T20:31:05.884Z,67.78
2023-04-16T20:33:07.879Z,68.63
2023-04-16T20:35:10.318Z,68.29
2023-04-16T20:37:12.311Z,68.06
2023-04-16T20:39:14.006Z,68.39
2023-04-16T20:41:15.653Z,68.31
2023-04-16T20:43:18.620Z,67.88
2023-04-16T20:45:20.574Z,68.17
2023-04-16T20:47:22.254Z,67.94
2023-04-16T20:49:23.960Z,68.04
2023-04-16T20:51:25.651Z,68.17
2023-04-16T20:53:27.621Z,68.50
2023-04-16T20:55:29.382Z,68.01
2023-04-16T20:57:31.161Z,68.64
2023-04-16T20:59:34.615Z,68.62
2023-04-16T21:01:36.302Z,68.72
2023-04-16T21:03:38.498Z,68.26
2023-04-16T21:05:40.304Z,68.47
2023-04-16T21:07:42.269Z,68.40
2023-04-16T21:09:44.064Z,68.79
2023-04-16T21:11:45.721Z,68.21
2023-04-16T21:13:47.431Z,68.53
2023-04-16T21:15:50.450Z,68.72
2023-04-16T21:17:52.296Z,68.57
2023-04-16T21:19:54.111Z,69.07
2023-04-16T21:21:57.120Z,68.49
2023-04-16T21:23:59.267Z,68.48
2023-04-16T21:26:00.969Z,68.45
2023-04-16T21:28:02.517Z,68.96
2023-04-16T21:30:04.886Z,69.08
2023-04-16T21:32:07.795Z,68.45
2023-04-16T21:34:09.430Z,68.21
2023-04-16T21:36:11.002Z,68.08
2023-04-16T21:38:12.625Z,68.79
2023-04-16T21:40:14.578Z,68.61
2023-04-16T21:42:16.052Z,68.45
2023-04-16T21:44:17.621Z,68.66
2023-04-16T21:46:19.309Z,68.79
2023-04-16T21:48:22.540Z,68.53
2023-04-16T21:50:24.378Z,68.58
2023-04-16T21:52:25.983Z,68.33
2023-04-16T21:54:27.664Z,68.55
2023-04-16T21:56:30.639Z,68.79
2023-04-16T21:58:33.570Z,68.86
2023-04-16T22:00:35.339Z,68.20
2023-04-16T22:02:37.402Z,68.41
2023-04-16T22:04:41.557Z,68.25
2023-04-16T22:06:43.286Z,68.65
2023-04-16T22:08:45.258Z,68.73
2023-04-16T22:10:46.956Z,68.88
2023-04-16T22:12:48.612Z,68.49
2023-04-16T22:16:57.365Z,68.51
2023-04-16T22:18:59.050Z,68.79
2023-04-16T22:21:01.925Z,68.45
2023-04-16T22:23:03.584Z,68.65
2023-04-16T22:25:06.168Z,69.03
2023-04-16T22:27:07.715Z,68.88
2023-04-16T22:29:09.464Z,69.11
2023-04-16T22:31:11.254Z,69.06
2023-04-16T22:33:12.997Z,68.71
2023-04-16T22:35:14.620Z,68.64
2023-04-16T22:37:17.535Z,68.57
2023-04-16T22:39:19.161Z,68.73
2023-04-16T22:41:20.794Z,68.58
2023-04-16T22:43:22.454Z,69.00
2023-04-16T22:45:23.952Z,68.54
2023-04-16T22:47:25.556Z,69.13
2023-04-16T22:49:27.324Z,68.58
2023-04-16T22:51:28.958Z,68.58
2023-04-16T22:53:32.147Z,68.69
2023-04-16T22:55:33.679Z,68.98
2023-04-16T22:57:35.251Z,68.61
2023-04-16T22:59:39.772Z,68.91
2023-04-16T23:01:44.018Z,69.06
2023-04-16T23:03:47.046Z,68.55
2023-04-16T23:05:48.952Z,68.35
2023-04-16T23:07:50.654Z,68.79
2023-04-16T23:09:53.682Z,68.36
2023-04-16T23:11:55.302Z,68.49
2023-04-16T23:13:56.943Z,69.08
2023-04-16T23:15:58.955Z,68.77
2023-04-16T23:18:01.666Z,68.81
2023-04-16T23:20:13.376Z,68.45
2023-04-16T23:22:15.091Z,68.82
2023-04-16T23:24:16.830Z,69.03
2023-04-16T23:26:19.810Z,69.39
2023-04-16T23:28:21.433Z,69.47
2023-04-16T23:30:25.021Z,69.16
2023-04-16T23:32:26.805Z,69.04
2023-04-16T23:34:28.352Z,69.68
2023-04-16T23:36:29.884Z,69.43
2023-04-16T23:38:31.415Z,69.51
2023-04-16T23:40:33.108Z,69.82
2023-04-16T23:42:36.139Z,69.15
2023-04-16T23:44:37.748Z,69.34
2023-04-16T23:46:39.372Z,69.21
2023-04-16T23:48:41.213Z,69.59
2023-04-16T23:50:42.724Z,69.27
2023-04-16T23:52:44.320Z,69.85
2023-04-16T23:54:45.870Z,69.60
2023-04-16T23:56:47.713Z,69.49
2023-04-16T23:58:50.621Z,69.83
